Time;durP1;ratioP1;P1;durP2;ratioP2;P2;SDS_P1;SDS_P2;PMS_P1;PMS_P2;Temp;Humidity;BMP_temperature;BMP_pressure;BME280_temperature;BME280_humidity;BME280_pressure;Samples;Min_cycle;Max_cycle;Signal;HPM_P1;HPM_P2
2024/01/22 00:01:22;;;;;;;18.83;13.03;;;-2.80;99.90;;;;;;5031544;28;20265;-56
2024/01/22 00:03:49;;;;;;;19.70;12.87;;;-2.90;99.90;;;;;;5027732;28;20224;-56
2024/01/22 00:06:16;;;;;;;16.43;11.87;;;-2.70;99.90;;;;;;5031234;28;20273;-56
2024/01/22 00:08:44;;;;;;;20.77;13.17;;;-2.70;99.90;;;;;;5028013;28;20672;-56
2024/01/22 00:11:12;;;;;;;20.83;12.97;;;-2.70;99.90;;;;;;5030566;28;20201;-56
2024/01/22 00:13:39;;;;;;;18.83;11.97;;;-3.00;99.90;;;;;;5031470;28;20284;-56
2024/01/22 00:16:06;;;;;;;18.87;11.57;;;;;;;;;;5033968;28;20200;-56
2024/01/22 00:18:33;;;;;;;16.90;12.37;;;;;;;;;;5034054;28;20204;-56
2024/01/22 00:21:00;;;;;;;22.20;12.07;;;-3.10;99.90;;;;;;5029819;28;20254;-56
2024/01/22 00:23:28;;;;;;;18.80;12.10;;;;;;;;;;5028087;28;20229;-56
2024/01/22 00:25:57;;;;;;;16.97;12.97;;;-4.60;99.90;;;;;;5014474;28;20225;-56
2024/01/22 00:28:24;;;;;;;20.07;12.47;;;;;;;;;;5027572;28;20202;-56
2024/01/22 00:30:51;;;;;;;17.10;11.30;;;-5.00;99.90;;;;;;5033102;28;20746;-56
2024/01/22 00:33:18;;;;;;;21.27;12.60;;;-3.10;99.90;;;;;;5031462;28;20232;-56
2024/01/22 00:35:45;;;;;;;18.60;11.37;;;-3.10;99.90;;;;;;5027019;28;20269;-56
2024/01/22 00:38:12;;;;;;;18.60;11.33;;;-3.00;99.90;;;;;;5033900;28;20211;-56
2024/01/22 00:40:39;;;;;;;16.47;11.13;;;-3.20;99.90;;;;;;5033790;28;20210;-56
2024/01/22 00:43:07;;;;;;;13.27;9.90;;;-3.20;99.90;;;;;;5031247;28;20229;-57
2024/01/22 00:45:34;;;;;;;13.33;9.97;;;-3.30;99.90;;;;;;5032554;28;20248;-57
2024/01/22 00:48:01;;;;;;;11.43;8.60;;;-3.30;99.90;;;;;;5033412;28;20685;-56
2024/01/22 00:50:28;;;;;;;16.27;9.90;;;-3.20;99.90;;;;;;5033517;28;20632;-56
2024/01/22 00:52:55;;;;;;;15.13;8.43;;;;;;;;;;5032886;28;20328;-56
2024/01/22 00:55:23;;;;;;;15.20;9.47;;;;;;;;;;5039164;28;20192;-57
2024/01/22 00:57:50;;;;;;;13.40;8.93;;;;;;;;;;5034023;28;20262;-56
2024/01/22 01:00:19;;;;;;;11.43;8.57;;;;;;;;;;5031024;28;20686;-56
2024/01/22 01:02:46;;;;;;;12.10;7.13;;;;;;;;;;5032189;28;20721;-56
2024/01/22 01:05:14;;;;;;;12.97;8.80;;;;;;;;;;5033243;28;20799;-56
2024/01/22 01:07:40;;;;;;;13.67;8.57;;;-3.20;99.90;;;;;;5028642;28;20256;-56
2024/01/22 01:10:08;;;;;;;12.70;9.37;;;-3.50;99.90;;;;;;5030193;28;20199;-56
2024/01/22 01:12:35;;;;;;;13.13;8.67;;;-3.00;99.90;;;;;;5037398;28;20228;-56
2024/01/22 01:15:02;;;;;;;13.80;9.57;;;-3.20;99.90;;;;;;5033159;28;20201;-58
2024/01/22 01:17:31;;;;;;;12.50;8.80;;;-3.40;99.90;;;;;;5032891;28;20708;-56
2024/01/22 01:19:58;;;;;;;15.33;9.43;;;-3.30;99.90;;;;;;5030572;28;20258;-56
2024/01/22 01:22:25;;;;;;;13.70;9.00;;;-3.30;99.90;;;;;;5034399;28;20717;-56
2024/01/22 01:24:52;;;;;;;15.70;9.13;;;-3.40;99.90;;;;;;5023521;28;20229;-56
2024/01/22 01:27:19;;;;;;;11.43;8.47;;;;;;;;;;5032718;28;20208;-56
2024/01/22 01:29:46;;;;;;;14.63;8.80;;;-3.50;99.90;;;;;;5032584;28;20680;-56
2024/01/22 01:32:17;;;;;;;13.03;9.17;;;-3.30;99.90;;;;;;5031833;28;20273;-56
2024/01/22 01:34:45;;;;;;;12.27;7.37;;;;;;;;;;5031803;28;20202;-56
2024/01/22 01:37:12;;;;;;;11.97;8.57;;;-3.50;99.90;;;;;;5020604;28;20205;-56
2024/01/22 01:39:39;;;;;;;9.07;7.03;;;;;;;;;;5032667;28;20247;-56
2024/01/22 01:42:10;;;;;;;13.17;7.23;;;-3.50;99.90;;;;;;5031827;28;20294;-56
2024/01/22 01:44:49;;;;;;;14.43;7.60;;;-3.30;99.90;;;;;;5032602;28;20202;-56
2024/01/22 01:47:18;;;;;;;12.40;8.23;;;-3.30;99.90;;;;;;5031040;28;20292;-56
2024/01/22 01:49:47;;;;;;;11.93;7.43;;;-3.30;99.90;;;;;;5023936;28;20665;-56
2024/01/22 01:52:19;;;;;;;11.47;7.97;;;-3.10;99.90;;;;;;5032000;28;21043;-56
2024/01/22 01:54:47;;;;;;;10.37;7.80;;;-3.40;99.90;;;;;;5032505;28;20524;-56
2024/01/22 01:57:14;;;;;;;8.10;6.50;;;-3.20;99.90;;;;;;5033864;28;20265;-56
2024/01/22 01:59:43;;;;;;;7.27;6.03;;;-3.30;99.90;;;;;;5032421;28;20261;-56
2024/01/22 02:02:13;;;;;;;7.77;5.07;;;;;;;;;;5032622;28;20463;-56
2024/01/22 02:04:41;;;;;;;7.97;5.23;;;;;;;;;;5033490;28;20500;-56
2024/01/22 02:07:09;;;;;;;9.23;5.60;;;;;;;;;;5033105;28;20539;-56
2024/01/22 02:09:47;;;;;;;8.07;5.90;;;;;;;;;;5025909;28;20685;-57
2024/01/22 02:12:18;;;;;;;10.20;5.07;;;;;;;;;;5036207;28;20237;-57
2024/01/22 02:14:46;;;;;;;7.00;4.30;;;-3.00;99.90;;;;;;5031515;28;20214;-56
2024/01/22 02:17:13;;;;;;;6.50;4.60;;;;;;;;;;5031036;28;20211;-56
2024/01/22 02:19:40;;;;;;;5.10;3.83;;;-2.60;99.90;;;;;;5032125;28;20225;-56
2024/01/22 02:22:07;;;;;;;3.80;3.50;;;;;;;;;;5030527;28;20219;-56
2024/01/22 02:24:36;;;;;;;4.53;3.57;;;;;;;;;;5028810;28;20467;-56
2024/01/22 02:27:03;;;;;;;10.83;3.97;;;;;;;;;;5024523;28;20286;-56
2024/01/22 02:29:31;;;;;;;4.50;4.07;;;;;;;;;;5028355;28;20208;-56
2024/01/22 02:31:58;;;;;;;4.20;3.60;;;-2.50;99.90;;;;;;5030962;28;20226;-56
2024/01/22 02:34:25;;;;;;;6.07;4.77;;;-2.70;99.90;;;;;;5031213;28;20199;-56
2024/01/22 02:36:52;;;;;;;5.27;3.47;;;-2.40;99.90;;;;;;5031793;28;20619;-56
2024/01/22 02:39:19;;;;;;;6.03;4.60;;;-2.70;99.90;;;;;;5030822;28;20203;-56
2024/01/22 02:41:47;;;;;;;6.57;4.63;;;-2.70;99.90;;;;;;5030035;28;20205;-56
2024/01/22 02:44:14;;;;;;;5.97;4.40;;;;;;;;;;5034788;28;20743;-56
2024/01/22 02:46:41;;;;;;;7.67;5.20;;;-2.50;99.90;;;;;;5031605;28;20278;-56
2024/01/22 02:49:09;;;;;;;13.40;5.80;;;-2.60;99.90;;;;;;5031477;28;20623;-56
2024/01/22 02:51:36;;;;;;;4.70;4.20;;;-2.90;99.90;;;;;;5029129;28;20291;-56
2024/01/22 02:54:04;;;;;;;8.80;4.77;;;-2.70;99.90;;;;;;5031397;28;20211;-56
2024/01/22 02:56:31;;;;;;;9.37;5.43;;;-2.70;99.90;;;;;;5031502;28;20294;-56
2024/01/22 02:59:00;;;;;;;6.63;4.63;;;;;;;;;;5031676;28;20812;-56
2024/01/22 03:01:27;;;;;;;9.37;5.40;;;;;;;;;;5030674;28;20538;-56
2024/01/22 03:03:55;;;;;;;7.33;5.10;;;;;;;;;;5027448;28;20219;-56
2024/01/22 03:06:22;;;;;;;6.60;4.67;;;;;;;;;;5022647;28;20524;-56
2024/01/22 03:08:49;;;;;;;5.93;5.00;;;-3.30;99.90;;;;;;5031281;28;20501;-56
2024/01/22 03:11:16;;;;;;;6.40;4.20;;;;;;;;;;5029331;28;20501;-56
2024/01/22 03:13:43;;;;;;;5.43;4.27;;;-3.40;99.90;;;;;;5023972;28;20515;-56
2024/01/22 03:16:12;;;;;;;4.93;4.20;;;-3.50;99.90;;;;;;5030543;28;20682;-56
2024/01/22 03:18:39;;;;;;;6.43;3.77;;;-3.20;99.90;;;;;;5023214;28;20447;-57
2024/01/22 03:21:06;;;;;;;4.87;3.77;;;-3.50;99.90;;;;;;5029206;28;20203;-56
2024/01/22 03:23:33;;;;;;;7.10;4.17;;;;;;;;;;5030581;28;20465;-56
2024/01/22 03:26:00;;;;;;;4.10;3.57;;;-2.50;99.90;;;;;;5031409;28;20481;-56
2024/01/22 03:28:27;;;;;;;3.97;3.30;;;-3.60;99.90;;;;;;5030448;28;20203;-56
2024/01/22 03:30:54;;;;;;;4.13;3.53;;;;;;;;;;5030234;28;20196;-56
2024/01/22 03:33:23;;;;;;;6.00;4.43;;;;;;;;;;5030787;28;20292;-56
2024/01/22 03:35:50;;;;;;;5.30;4.10;;;;;;;;;;5031189;28;20947;-58
2024/01/22 03:38:18;;;;;;;4.70;4.23;;;;;;;;;;5029351;28;20216;-56
2024/01/22 03:40:45;;;;;;;4.33;3.80;;;-3.50;99.90;;;;;;5024412;28;20250;-56
2024/01/22 03:43:12;;;;;;;3.67;3.07;;;-3.30;99.90;;;;;;5030861;28;20705;-56
2024/01/22 03:45:39;;;;;;;4.83;3.97;;;;;;;;;;5034598;28;20441;-56
2024/01/22 03:48:07;;;;;;;5.30;2.63;;;-3.40;99.90;;;;;;5034507;28;20446;-56
2024/01/22 03:50:35;;;;;;;5.10;3.00;;;-3.30;99.90;;;;;;5034571;28;20212;-56
2024/01/22 03:53:02;;;;;;;3.57;2.20;;;-3.30;99.90;;;;;;5031887;28;20848;-56
2024/01/22 03:55:29;;;;;;;1.73;1.63;;;-3.40;99.90;;;;;;5025350;28;20232;-56
2024/01/22 03:57:56;;;;;;;1.13;1.03;;;-3.30;99.90;;;;;;5037055;28;20203;-56
2024/01/22 04:00:23;;;;;;;0.60;0.50;;;-3.10;99.90;;;;;;5034278;28;20262;-55
2024/01/22 04:02:51;;;;;;;1.13;0.50;;;;;;;;;;5030916;28;20223;-56
2024/01/22 04:05:18;;;;;;;2.27;0.70;;;-1.70;99.90;;;;;;5032428;28;20301;-56
2024/01/22 04:07:46;;;;;;;1.07;0.90;;;-1.30;99.90;;;;;;5026129;28;20221;-57
2024/01/22 04:10:13;;;;;;;0.90;0.60;;;-0.70;99.90;;;;;;5034178;28;20200;-57
2024/01/22 04:12:40;;;;;;;0.50;0.50;;;-0.50;99.90;;;;;;5032436;28;20232;-57
2024/01/22 04:15:08;;;;;;;1.00;0.40;;;;;;;;;;5034345;28;20208;-57
2024/01/22 04:17:35;;;;;;;2.20;0.50;;;-0.60;99.90;;;;;;5033121;28;20250;-57
2024/01/22 04:20:03;;;;;;;0.73;0.67;;;-0.40;99.90;;;;;;5032671;28;20263;-57
2024/01/22 04:22:30;;;;;;;1.67;0.80;;;-0.80;99.90;;;;;;5030264;28;20225;-57
2024/01/22 04:24:58;;;;;;;1.00;0.80;;;-0.60;99.90;;;;;;5034300;28;20215;-57
2024/01/22 04:27:25;;;;;;;0.60;0.60;;;-0.90;99.90;;;;;;5032682;28;20285;-59
2024/01/22 04:29:52;;;;;;;1.23;0.83;;;-0.70;99.90;;;;;;5033955;28;20218;-57
2024/01/22 04:32:19;;;;;;;2.37;0.50;;;;;;;;;;5024579;28;20225;-57
2024/01/22 04:34:46;;;;;;;0.93;0.80;;;-0.90;99.90;;;;;;5033864;28;20795;-57
2024/01/22 04:37:17;;;;;;;0.80;0.70;;;-0.70;99.90;;;;;;5033733;28;20202;-57
2024/01/22 04:39:44;;;;;;;1.03;0.87;;;-1.00;99.90;;;;;;5031362;28;20195;-57
2024/01/22 04:42:20;;;;;;;1.53;1.20;;;-1.00;99.90;;;;;;5033452;28;20231;-57
2024/01/22 04:44:47;;;;;;;1.27;1.07;;;;;;;;;;5023526;28;20203;-57
2024/01/22 04:47:14;;;;;;;0.90;0.87;;;-1.10;99.90;;;;;;5033624;28;20221;-57
2024/01/22 04:49:41;;;;;;;2.67;0.97;;;-1.00;99.90;;;;;;5033705;28;20203;-57
2024/01/22 04:52:08;;;;;;;0.80;0.80;;;-1.00;99.90;;;;;;5032730;28;20271;-57
2024/01/22 04:54:35;;;;;;;4.33;3.93;;;-0.60;99.90;;;;;;5031632;28;20598;-57
2024/01/22 04:57:02;;;;;;;5.43;4.40;;;-0.80;99.90;;;;;;5031720;28;20547;-57
2024/01/22 04:59:30;;;;;;;7.53;6.73;;;-0.60;99.90;;;;;;5031134;28;20198;-57
2024/01/22 05:01:57;;;;;;;8.43;6.70;;;-0.90;99.90;;;;;;5033271;28;20781;-57
2024/01/22 05:04:24;;;;;;;15.63;10.07;;;-1.00;99.90;;;;;;5031338;28;20205;-57
2024/01/22 05:06:51;;;;;;;14.53;8.93;;;-1.10;99.90;;;;;;5032132;28;20263;-57
2024/01/22 05:09:18;;;;;;;10.63;8.07;;;-1.20;99.90;;;;;;5033114;28;20259;-57
2024/01/22 05:11:45;;;;;;;11.93;8.17;;;;;;;;;;5031897;28;20212;-57
2024/01/22 05:14:12;;;;;;;11.03;8.37;;;;;;;;;;5033532;28;20219;-57
2024/01/22 05:16:41;;;;;;;11.90;8.30;;;;;;;;;;5032035;28;20230;-57
2024/01/22 05:19:08;;;;;;;14.40;8.47;;;;;;;;;;5028694;28;20277;-57
2024/01/22 05:21:35;;;;;;;15.27;9.07;;;;;;;;;;5029993;28;20667;-57
2024/01/22 05:24:02;;;;;;;12.60;8.60;;;-1.50;99.90;;;;;;5031004;28;20282;-57
2024/01/22 05:26:49;;;;;;;14.50;10.10;;;-1.30;99.90;;;;;;5040113;28;20872;-57
2024/01/22 05:29:16;;;;;;;14.17;9.70;;;;;;;;;;5031964;28;20206;-57
2024/01/22 05:31:44;;;;;;;9.83;8.80;;;-1.60;99.90;;;;;;5024958;28;20722;-57
2024/01/22 05:34:11;;;;;;;12.30;9.30;;;-1.50;99.90;;;;;;5033176;28;20208;-57
2024/01/22 05:36:39;;;;;;;16.80;11.57;;;;;;;;;;5033395;28;20205;-57
2024/01/22 05:39:07;;;;;;;15.10;10.17;;;;;;;;;;5031318;28;20287;-57
2024/01/22 05:41:34;;;;;;;22.63;11.93;;;;;;;;;;5030392;28;20639;-57
2024/01/22 05:44:01;;;;;;;16.40;11.97;;;-1.40;99.90;;;;;;5022757;28;20221;-58
2024/01/22 05:46:28;;;;;;;17.13;11.90;;;-1.40;99.90;;;;;;5023903;28;20791;-61
2024/01/22 05:48:57;;;;;;;17.57;12.47;;;;;;;;;;5030272;28;20209;-64
2024/01/22 05:51:24;;;;;;;17.23;11.67;;;-1.80;99.90;;;;;;5027835;28;20687;-64
2024/01/22 05:53:51;;;;;;;14.13;10.87;;;-1.80;99.90;;;;;;5025653;28;20229;-68
2024/01/22 05:56:22;;;;;;;14.37;11.10;;;-1.60;99.90;;;;;;5028068;28;20201;-67
2024/01/22 05:58:49;;;;;;;17.17;11.00;;;-1.90;99.90;;;;;;5028083;28;20293;-61
2024/01/22 06:01:20;;;;;;;13.17;10.40;;;-1.80;99.90;;;;;;5028336;28;20228;-61
2024/01/22 06:03:47;;;;;;;14.60;10.70;;;;;;;;;;5024448;28;20308;-63
2024/01/22 06:06:15;;;;;;;18.17;11.20;;;-1.90;99.90;;;;;;5022623;28;20331;-62
2024/01/22 06:08:43;;;;;;;15.33;10.90;;;-1.90;99.90;;;;;;5028191;28;20251;-62
2024/01/22 06:11:10;;;;;;;14.57;10.47;;;-1.60;99.90;;;;;;5027117;28;20255;-63
2024/01/22 06:13:38;;;;;;;15.67;11.03;;;-1.80;99.90;;;;;;5027510;28;20228;-69
2024/01/22 06:16:08;;;;;;;16.43;12.17;;;-2.00;99.90;;;;;;5022484;28;20546;-65
2024/01/22 06:18:36;;;;;;;15.50;11.97;;;-2.10;99.90;;;;;;5025194;28;20224;-64
2024/01/22 06:21:03;;;;;;;14.97;11.60;;;-2.00;99.90;;;;;;5029829;28;20262;-60
2024/01/22 06:23:32;;;;;;;15.90;10.93;;;-2.20;99.90;;;;;;5026454;28;20224;-61
2024/01/22 06:25:59;;;;;;;17.23;12.40;;;-2.30;99.90;;;;;;5024140;28;20266;-64
2024/01/22 06:28:27;;;;;;;19.70;11.77;;;-2.20;99.90;;;;;;5025967;28;20351;-64
2024/01/22 06:30:54;;;;;;;16.73;13.60;;;-2.10;99.90;;;;;;5027485;28;20201;-63
2024/01/22 06:33:22;;;;;;;19.77;13.33;;;-2.00;99.90;;;;;;5021373;28;20242;-65
2024/01/22 06:35:50;;;;;;;17.13;12.00;;;-1.90;99.90;;;;;;5026995;28;20206;-61
2024/01/22 06:38:18;;;;;;;20.40;13.30;;;-2.00;99.90;;;;;;5024732;28;20254;-61
2024/01/22 06:40:47;;;;;;;25.00;13.97;;;-2.10;99.90;;;;;;5021751;28;20747;-62
2024/01/22 06:43:14;;;;;;;21.60;14.60;;;-2.30;99.90;;;;;;5025863;28;20647;-66
2024/01/22 06:45:41;;;;;;;22.23;14.30;;;-2.30;99.90;;;;;;5028039;28;20208;-64
2024/01/22 06:48:08;;;;;;;21.73;15.37;;;-2.00;99.90;;;;;;5026995;28;20265;-63
2024/01/22 06:50:35;;;;;;;24.23;16.40;;;-2.00;99.90;;;;;;5022660;28;20201;-62
2024/01/22 06:53:03;;;;;;;27.10;15.33;;;-2.10;99.90;;;;;;5026310;28;20288;-61
2024/01/22 06:55:30;;;;;;;22.60;15.70;;;-2.00;99.90;;;;;;5026404;28;20198;-63
2024/01/22 06:57:59;;;;;;;25.53;15.57;;;-2.20;99.90;;;;;;5029425;28;20200;-63
2024/01/22 07:00:26;;;;;;;26.27;16.93;;;-2.00;99.90;;;;;;5028773;28;20204;-63
2024/01/22 07:02:53;;;;;;;24.30;15.70;;;-1.90;99.90;;;;;;5023787;28;20223;-62
2024/01/22 07:05:20;;;;;;;23.73;15.17;;;-2.10;99.90;;;;;;5024936;28;20291;-63
2024/01/22 07:07:47;;;;;;;18.07;14.43;;;-2.10;99.90;;;;;;5025883;28;20214;-63
2024/01/22 07:10:14;;;;;;;22.07;16.13;;;-2.10;99.90;;;;;;5026219;28;20273;-59
2024/01/22 07:12:41;;;;;;;21.47;14.20;;;-2.00;99.90;;;;;;5028427;28;20671;-63
2024/01/22 07:15:12;;;;;;;24.60;14.87;;;-2.00;99.90;;;;;;5029155;28;20204;-61
2024/01/22 07:17:39;;;;;;;24.80;15.37;;;-2.00;99.90;;;;;;5031874;28;20196;-62
2024/01/22 07:20:08;;;;;;;23.57;13.50;;;;;;;;;;5032030;28;20288;-61
2024/01/22 07:22:36;;;;;;;22.33;14.30;;;-1.70;99.90;;;;;;5024797;28;20315;-62
2024/01/22 07:25:04;;;;;;;23.60;15.70;;;-1.50;99.90;;;;;;5023507;28;20691;-62
2024/01/22 07:27:31;;;;;;;20.73;12.83;;;-0.80;99.90;;;;;;5027531;28;20224;-63
2024/01/22 07:29:58;;;;;;;20.40;11.90;;;-1.60;99.90;;;;;;5033888;28;20687;-59
2024/01/22 07:32:27;;;;;;;24.27;11.20;;;-1.20;99.90;;;;;;5023249;28;20710;-60
2024/01/22 07:34:54;;;;;;;14.80;10.87;;;-1.60;99.90;;;;;;5033220;28;20296;-62
2024/01/22 07:37:21;;;;;;;12.93;8.63;;;-1.40;99.90;;;;;;5032897;28;20254;-60
2024/01/22 07:39:48;;;;;;;10.60;8.03;;;-1.20;99.90;;;;;;5030137;28;20205;-61
2024/01/22 07:42:15;;;;;;;9.30;6.77;;;-1.40;99.90;;;;;;5030551;28;20279;-60
2024/01/22 07:44:42;;;;;;;9.13;5.93;;;-1.00;99.90;;;;;;5031461;28;20209;-61
2024/01/22 07:47:10;;;;;;;9.07;5.70;;;-0.90;99.90;;;;;;5030336;28;20224;-61
2024/01/22 07:49:38;;;;;;;10.40;5.47;;;-0.90;99.90;;;;;;5031478;28;20290;-62
2024/01/22 07:52:05;;;;;;;7.03;6.23;;;-1.00;99.90;;;;;;5031451;28;20241;-58
2024/01/22 07:54:32;;;;;;;8.50;5.67;;;-1.10;99.90;;;;;;5033267;28;20200;-64
2024/01/22 07:56:59;;;;;;;10.63;6.80;;;-0.60;99.90;;;;;;5033801;28;20208;-64
2024/01/22 07:59:26;;;;;;;9.33;5.67;;;-0.50;99.90;;;;;;5029416;28;20738;-66
2024/01/22 08:01:53;;;;;;;11.00;6.50;;;-0.60;99.90;;;;;;5029319;28;20681;-61
2024/01/22 08:04:20;;;;;;;9.87;5.50;;;-0.50;99.90;;;;;;5029308;28;20418;-63
2024/01/22 08:06:48;;;;;;;4.33;3.83;;;-0.30;99.90;;;;;;5026000;28;20262;-66
2024/01/22 08:09:15;;;;;;;9.73;5.30;;;-0.20;99.90;;;;;;5028636;28;20270;-66
2024/01/22 08:11:43;;;;;;;9.20;6.53;;;0.00;99.90;;;;;;5030656;28;20207;-65
2024/01/22 08:14:10;;;;;;;10.77;7.60;;;0.20;99.90;;;;;;5030605;28;20295;-66
2024/01/22 08:16:37;;;;;;;10.67;7.73;;;0.20;99.90;;;;;;5030145;28;20269;-64
2024/01/22 08:19:04;;;;;;;12.57;9.00;;;0.20;99.90;;;;;;5029724;28;20200;-64
2024/01/22 08:21:31;;;;;;;11.17;6.87;;;0.10;99.90;;;;;;5026822;28;20204;-64
2024/01/22 08:23:59;;;;;;;11.83;7.87;;;0.00;99.90;;;;;;5031605;28;20234;-65
2024/01/22 08:26:27;;;;;;;11.90;7.37;;;;;;;;;;5028353;28;20199;-59
2024/01/22 08:28:54;;;;;;;9.57;8.50;;;0.00;99.90;;;;;;5026992;28;20242;-68
2024/01/22 08:31:21;;;;;;;9.97;7.17;;;;;;;;;;5027342;28;20210;-66
2024/01/22 08:33:50;;;;;;;11.90;7.67;;;0.10;99.90;;;;;;5031493;28;20231;-65
2024/01/22 08:36:17;;;;;;;11.37;7.63;;;0.10;99.90;;;;;;5030328;28;20621;-64
2024/01/22 08:38:44;;;;;;;15.57;9.57;;;0.20;99.90;;;;;;5026258;28;20199;-57
2024/01/22 08:41:12;;;;;;;11.03;8.73;;;0.10;99.90;;;;;;5028727;28;20213;-57
2024/01/22 08:43:40;;;;;;;13.43;9.23;;;0.40;99.90;;;;;;5028591;28;20849;-57
2024/01/22 08:46:07;;;;;;;14.00;9.57;;;0.40;99.90;;;;;;5026708;28;20206;-57
2024/01/22 08:48:34;;;;;;;15.30;8.93;;;0.40;99.90;;;;;;5031838;28;20212;-57
2024/01/22 08:51:01;;;;;;;11.70;10.03;;;0.60;99.90;;;;;;5029563;28;20214;-57
2024/01/22 08:53:28;;;;;;;18.83;10.77;;;0.50;99.90;;;;;;5029816;28;20244;-57
2024/01/22 08:55:55;;;;;;;13.00;9.90;;;0.70;99.90;;;;;;5026776;28;20202;-63
2024/01/22 08:58:23;;;;;;;14.83;10.23;;;;;;;;;;5020468;28;20231;-58
2024/01/22 09:00:50;;;;;;;17.30;11.00;;;;;;;;;;5019383;28;20201;-57
2024/01/22 09:03:18;;;;;;;12.60;8.97;;;1.00;99.90;;;;;;5031545;28;21062;-57
2024/01/22 09:05:45;;;;;;;15.10;9.87;;;1.10;99.90;;;;;;5027419;28;20615;-57
2024/01/22 09:08:13;;;;;;;17.90;12.03;;;1.20;99.90;;;;;;5025567;28;20659;-57
2024/01/22 09:10:39;;;;;;;15.73;11.30;;;1.30;99.90;;;;;;5028946;28;20584;-57
2024/01/22 09:13:08;;;;;;;17.70;11.07;;;1.20;99.90;;;;;;5026854;28;20619;-57
2024/01/22 09:15:37;;;;;;;13.67;10.60;;;;;;;;;;5025419;28;20206;-57
2024/01/22 09:18:04;;;;;;;18.27;10.07;;;1.20;99.90;;;;;;5020574;28;20236;-58
2024/01/22 09:20:31;;;;;;;22.03;11.90;;;1.30;99.90;;;;;;5032080;28;20277;-57
2024/01/22 09:22:58;;;;;;;15.27;9.40;;;;;;;;;;5026422;28;20225;-57
2024/01/22 09:25:25;;;;;;;12.77;8.17;;;;;;;;;;5028192;28;20246;-58
2024/01/22 09:27:53;;;;;;;12.00;7.43;;;;;;;;;;5032900;28;20277;-57
2024/01/22 09:30:20;;;;;;;8.90;6.00;;;;;;;;;;5023673;28;20243;-57
2024/01/22 09:32:50;;;;;;;6.87;6.03;;;;;;;;;;5030025;28;20253;-57
2024/01/22 09:35:18;;;;;;;8.67;5.47;;;;;;;;;;5032548;28;20693;-57
2024/01/22 09:37:45;;;;;;;9.47;7.07;;;;;;;;;;5032671;28;20204;-57
2024/01/22 09:40:13;;;;;;;7.53;5.57;;;;;;;;;;5032417;28;20287;-58
2024/01/22 09:42:41;;;;;;;7.00;5.57;;;;;;;;;;5030558;28;20318;-57
2024/01/22 09:45:09;;;;;;;6.73;5.40;;;;;;;;;;5030148;28;20253;-57
2024/01/22 09:47:37;;;;;;;14.13;6.37;;;;;;;;;;5032897;28;20226;-57
2024/01/22 09:50:06;;;;;;;7.17;5.90;;;;;;;;;;5025199;28;20243;-57
2024/01/22 09:52:35;;;;;;;7.27;6.57;;;;;;;;;;5029912;28;20221;-57
2024/01/22 09:55:02;;;;;;;10.43;6.30;;;;;;;;;;5032192;28;20200;-58
2024/01/22 09:57:30;;;;;;;6.63;6.00;;;;;;;;;;5032346;28;20207;-57
2024/01/22 09:59:59;;;;;;;9.27;4.40;;;;;;;;;;5031491;28;20204;-57
2024/01/22 10:02:26;;;;;;;5.47;3.70;;;;;;;;;;5031251;28;20219;-58
2024/01/22 10:04:53;;;;;;;5.23;4.60;;;;;;;;;;5029362;28;20208;-58
2024/01/22 10:07:23;;;;;;;5.23;4.23;;;;;;;;;;5018919;28;20208;-58
2024/01/22 10:09:50;;;;;;;4.67;3.77;;;;;;;;;;5019811;28;20212;-58
2024/01/22 10:12:18;;;;;;;7.20;4.93;;;;;;;;;;5027777;28;20278;-58
2024/01/22 10:14:45;;;;;;;19.03;9.33;;;;;;;;;;5032180;28;20254;-58
2024/01/22 10:17:17;;;;;;;10.53;5.40;;;;;;;;;;5032050;28;20215;-58
2024/01/22 10:19:45;;;;;;;7.57;5.00;;;;;;;;;;5031260;28;20556;-58
2024/01/22 10:22:16;;;;;;;9.07;3.70;;;;;;;;;;5030570;28;20312;-58
2024/01/22 10:24:44;;;;;;;3.10;2.43;;;4.90;99.90;;;;;;5032134;28;20211;-58
2024/01/22 10:27:18;;;;;;;4.87;1.83;;;4.70;99.90;;;;;;5031897;28;20205;-58
2024/01/22 10:29:46;;;;;;;4.40;1.27;;;4.70;99.90;;;;;;5029246;28;20275;-58
2024/01/22 10:32:21;;;;;;;2.23;1.77;;;4.50;99.90;;;;;;5028811;28;20765;-57
2024/01/22 10:34:51;;;;;;;7.10;1.90;;;4.30;99.90;;;;;;5025735;28;20254;-58
2024/01/22 10:37:18;;;;;;;4.20;2.17;;;;;;;;;;5028848;28;20200;-57
2024/01/22 10:39:51;;;;;;;12.57;2.43;;;;;;;;;;5026496;28;20208;-57
2024/01/22 10:42:18;;;;;;;5.43;2.37;;;;;;;;;;5027333;28;20229;-58
2024/01/22 10:44:46;;;;;;;6.87;2.50;;;3.70;99.90;;;;;;5026530;28;20208;-58
2024/01/22 10:47:14;;;;;;;2.27;1.40;;;3.70;99.90;;;;;;5021166;28;20655;-57
2024/01/22 10:49:44;;;;;;;5.70;2.30;;;3.80;99.90;;;;;;5028754;28;20274;-57
2024/01/22 10:52:15;;;;;;;4.73;1.73;;;;;;;;;;5031172;28;20720;-57
2024/01/22 10:54:42;;;;;;;4.67;2.50;;;4.10;99.90;;;;;;5031894;28;20202;-57
2024/01/22 10:57:24;;;;;;;3.70;1.20;;;4.40;99.90;;;;;;5031988;28;20196;-58
2024/01/22 10:59:58;;;;;;;1.97;1.10;;;4.50;99.90;;;;;;5028902;28;20197;-58
2024/01/22 11:02:31;;;;;;;16.23;1.67;;;;;;;;;;5029548;28;20228;-58
2024/01/22 11:05:05;;;;;;;3.90;1.83;;;4.80;99.90;;;;;;5031738;28;20204;-58
2024/01/22 11:07:33;;;;;;;3.90;3.43;;;;;;;;;;5027470;28;20254;-57
2024/01/22 11:10:03;;;;;;;6.20;1.77;;;5.20;99.90;;;;;;5031348;28;20224;-57
2024/01/22 11:12:40;;;;;;;3.07;1.40;;;5.30;99.90;;;;;;5026511;28;20727;-57
2024/01/22 11:15:08;;;;;;;5.83;2.00;;;5.50;99.90;;;;;;5030381;28;20208;-57
2024/01/22 11:17:35;;;;;;;6.90;2.00;;;5.40;99.90;;;;;;5029787;28;20213;-57
2024/01/22 11:20:18;;;;;;;2.67;2.47;;;5.40;99.90;;;;;;5034754;28;20210;-58
2024/01/22 11:22:58;;;;;;;10.37;4.73;;;4.90;99.90;;;;;;5034000;28;20305;-57
2024/01/22 11:25:25;;;;;;;10.90;2.73;;;5.20;99.90;;;;;;5030023;28;20289;-58
2024/01/22 11:28:01;;;;;;;11.77;4.00;;;5.20;99.90;;;;;;5027952;28;20208;-57
2024/01/22 11:30:29;;;;;;;8.20;3.23;;;5.40;99.90;;;;;;5029025;28;20618;-58
2024/01/22 11:32:56;;;;;;;3.90;3.43;;;5.40;99.90;;;;;;5029817;28;20331;-58
2024/01/22 11:35:37;;;;;;;3.90;2.73;;;5.20;99.90;;;;;;5030559;28;20208;-57
2024/01/22 11:38:05;;;;;;;9.83;3.43;;;5.20;99.90;;;;;;5028444;28;20207;-58
2024/01/22 11:40:49;;;;;;;5.97;3.40;;;5.10;99.90;;;;;;5030957;28;20583;-58
2024/01/22 11:43:18;;;;;;;9.57;3.90;;;5.30;99.90;;;;;;5027725;28;20311;-58
2024/01/22 11:45:46;;;;;;;19.00;5.13;;;5.20;99.90;;;;;;5030529;28;20997;-58
2024/01/22 11:48:17;;;;;;;10.37;4.00;;;5.20;99.90;;;;;;5030878;28;20224;-58
2024/01/22 11:50:44;;;;;;;4.50;3.57;;;;;;;;;;5024759;28;20201;-58
2024/01/22 11:53:12;;;;;;;5.93;3.50;;;;;;;;;;5028373;28;20307;-58
2024/01/22 11:55:39;;;;;;;8.17;3.53;;;;;;;;;;5032653;28;20719;-58
2024/01/22 11:58:10;;;;;;;9.63;5.57;;;4.90;99.90;;;;;;5032253;28;20206;-58
2024/01/22 12:00:39;;;;;;;7.43;3.63;;;5.00;99.90;;;;;;5027787;28;20623;-58
2024/01/22 12:03:06;;;;;;;8.43;3.87;;;5.00;99.90;;;;;;5028570;28;20267;-58
2024/01/22 12:05:33;;;;;;;7.93;4.07;;;;;;;;;;5028855;28;20197;-58
2024/01/22 12:08:00;;;;;;;9.23;4.37;;;4.80;99.90;;;;;;5026020;28;20259;-58
2024/01/22 12:10:28;;;;;;;9.90;4.50;;;;;;;;;;5029840;28;20262;-58
2024/01/22 12:12:56;;;;;;;9.10;5.20;;;;;;;;;;5031000;28;20831;-58
2024/01/22 12:15:24;;;;;;;6.80;3.80;;;;;;;;;;5031686;28;20616;-58
2024/01/22 12:17:53;;;;;;;3.93;3.50;;;5.20;99.90;;;;;;5026492;28;20547;-58
2024/01/22 12:20:21;;;;;;;5.07;3.70;;;;;;;;;;5031144;28;20196;-58
2024/01/22 12:22:56;;;;;;;4.03;3.10;;;;;;;;;;5020422;28;20256;-58
2024/01/22 12:25:23;;;;;;;10.57;5.03;;;;;;;;;;5031411;28;20281;-58
2024/01/22 12:27:52;;;;;;;96.27;60.33;;;;;;;;;;5032466;28;20196;-57
2024/01/22 12:30:19;;;;;;;16.37;10.10;;;5.40;99.90;;;;;;5030644;28;20694;-58
2024/01/22 12:32:53;;;;;;;12.63;4.80;;;;;;;;;;5028833;28;20970;-58
2024/01/22 12:35:23;;;;;;;5.13;4.00;;;;;;;;;;5030976;28;20207;-58
2024/01/22 12:37:50;;;;;;;3.37;2.83;;;5.80;99.90;;;;;;5033641;28;20204;-57
2024/01/22 12:40:18;;;;;;;3.97;3.13;;;5.70;99.90;;;;;;5026301;28;20268;-58
2024/01/22 12:42:47;;;;;;;9.20;4.47;;;;;;;;;;5031669;28;20657;-57
2024/01/22 12:45:14;;;;;;;6.70;4.97;;;;;;;;;;5021953;28;20735;-58
2024/01/22 12:47:42;;;;;;;7.00;4.70;;;;;;;;;;5022916;28;20243;-58
2024/01/22 12:50:12;;;;;;;8.77;4.43;;;;;;;;;;5033408;28;20286;-58
2024/01/22 12:52:42;;;;;;;5.13;3.60;;;;;;;;;;5027458;28;20629;-58
2024/01/22 12:55:10;;;;;;;4.87;3.47;;;4.90;99.90;;;;;;5033265;28;20202;-58
2024/01/22 12:57:37;;;;;;;3.63;3.10;;;;;;;;;;5023851;28;20259;-58
2024/01/22 13:00:05;;;;;;;6.93;4.13;;;;;;;;;;5029450;28;20209;-57
2024/01/22 13:02:32;;;;;;;8.07;3.90;;;4.60;99.90;;;;;;5027389;28;20253;-57
2024/01/22 13:05:00;;;;;;;11.33;5.73;;;4.50;99.90;;;;;;5031570;28;20710;-57
2024/01/22 13:07:28;;;;;;;12.10;5.67;;;;;;;;;;5031203;28;20201;-57
2024/01/22 13:09:55;;;;;;;7.43;5.30;;;4.60;99.90;;;;;;5030522;28;20707;-57
2024/01/22 13:12:23;;;;;;;9.70;4.83;;;;;;;;;;5026191;28;20256;-57
2024/01/22 13:14:50;;;;;;;5.17;2.87;;;4.40;99.90;;;;;;5028648;28;20200;-57
2024/01/22 13:17:18;;;;;;;6.83;3.53;;;4.50;99.90;;;;;;5023745;28;20224;-57
2024/01/22 13:19:45;;;;;;;3.63;3.30;;;;;;;;;;5028329;28;20236;-57
2024/01/22 13:22:12;;;;;;;9.40;4.43;;;;;;;;;;5019792;28;20225;-58